Wetterdaten: Woche 05.09.22 - 11.09.22 (KW36)
Datum Zeit Temp. Aussen Temp. o. S. Temp +5cm Feuchte Auss Luftdruck Regen Sonnenschein Regendauer Solar Windben Empfang
05.09.2022 00:00 18,9 C 17,5 C 13,9 C 83 % 1019,4 hPa 0,0 l/m 0,00 h 0,00 h 0 W/m 0,0 km/h (0 Bft) 96,22 %
05.09.2022 01:00 18,3 C 17,0 C 13,5 C 85 % 1019,4 hPa 0,0 l/m 0,00 h 0,00 h 0 W/m 0,0 km/h (0 Bft) 97,57 %
05.09.2022 02:00 18,0 C 17,4 C 13,8 C 86 % 1019,4 hPa 0,0 l/m 0,00 h 0,00 h 0 W/m 0,0 km/h (0 Bft) 97,78 %
05.09.2022 03:00 18,5 C 17,8 C 14,3 C 84 % 1019,4 hPa 0,0 l/m 0,00 h 0,00 h 0 W/m 0,0 km/h (0 Bft) 97,09 %
05.09.2022 04:00 18,4 C 17,5 C 14,2 C 85 % 1019,4 hPa 0,0 l/m 0,00 h 0,00 h 0 W/m 0,0 km/h (0 Bft) 97,47 %
05.09.2022 05:00 17,9 C 16,8 C 13,6 C 86 % 1019,4 hPa 0,0 l/m 0,00 h 0,00 h 0 W/m 0,1 km/h (0 Bft) 97,37 %
05.09.2022 06:00 17,3 C 16,2 C 13,3 C 88 % 1019,6 hPa 0,0 l/m 0,00 h 0,00 h 4 W/m 0,0 km/h (0 Bft) 98,17 %
05.09.2022 07:00 17,1 C 16,4 C 13,3 C 88 % 1019,8 hPa 0,0 l/m 0,00 h 0,00 h 17 W/m 0,0 km/h (0 Bft) 96,73 %
05.09.2022 08:00 18,0 C 17,8 C 14,2 C 87 % 1020,1 hPa 0,0 l/m 0,00 h 0,00 h 30 W/m 0,0 km/h (0 Bft) 97,94 %
05.09.2022 09:00 20,3 C 20,3 C 16,3 C 79 % 1020,2 hPa 0,0 l/m 0,13 h 0,00 h 116 W/m 8,3 km/h (2 Bft) 97,65 %
05.09.2022 10:00 22,9 C 24,0 C 18,6 C 69 % 1020,2 hPa 0,0 l/m 0,00 h 0,00 h 77 W/m 9,0 km/h (2 Bft) 98,79 %
05.09.2022 11:00 25,6 C 26,6 C 21,4 C 60 % 1019,9 hPa 0,0 l/m 0,43 h 0,00 h 325 W/m 9,3 km/h (2 Bft) 96,58 %
05.09.2022 12:00 28,3 C 31,9 C 25,7 C 49 % 1019,6 hPa 0,0 l/m 0,77 h 0,00 h 601 W/m 9,2 km/h (2 Bft) 97,41 %
05.09.2022 13:00 29,0 C 28,5 C 23,7 C 43 % 1019,2 hPa 0,0 l/m 0,45 h 0,00 h 330 W/m 11,1 km/h (2 Bft) 98,96 %
05.09.2022 14:00 30,5 C 35,8 C 23,9 C 40 % 1018,8 hPa 0,0 l/m 1,02 h 0,00 h 713 W/m 10,0 km/h (2 Bft) 98,60 %
05.09.2022 15:00 30,2 C 31,0 C 24,0 C 41 % 1018,4 hPa 0,0 l/m 0,57 h 0,00 h 424 W/m 6,5 km/h (2 Bft) 96,87 %
05.09.2022 16:00 29,8 C 29,6 C 23,9 C 41 % 1017,9 hPa 0,0 l/m 0,83 h 0,00 h 293 W/m 5,0 km/h (1 Bft) 98,93 %
05.09.2022 17:00 29,3 C 28,8 C 23,5 C 42 % 1017,5 hPa 0,0 l/m 0,23 h 0,00 h 160 W/m 5,1 km/h (1 Bft) 96,45 %
05.09.2022 18:00 28,6 C 27,1 C 22,2 C 47 % 1017,2 hPa 0,0 l/m 0,00 h 0,00 h 87 W/m 2,6 km/h (1 Bft) 98,07 %
05.09.2022 19:00 27,3 C 25,0 C 20,4 C 51 % 1016,8 hPa 0,0 l/m 0,00 h 0,00 h 28 W/m 0,2 km/h (0 Bft) 99,08 %
05.09.2022 20:00 25,6 C 23,2 C 18,7 C 57 % 1016,7 hPa 0,0 l/m 0,00 h 0,00 h 6 W/m 0,0 km/h (0 Bft) 95,83 %
05.09.2022 21:00 24,4 C 22,6 C 18,0 C 59 % 1016,7 hPa 0,0 l/m 0,00 h 0,00 h 0 W/m 0,0 km/h (0 Bft) 98,36 %
05.09.2022 22:00 23,3 C 21,3 C 16,9 C 63 % 1016,4 hPa 0,0 l/m 0,00 h 0,00 h 0 W/m 0,0 km/h (0 Bft) 98,37 %
05.09.2022 23:00 22,2 C 20,6 C 16,3 C 65 % 1016,2 hPa 0,0 l/m 0,00 h 0,00 h 0 W/m 0,0 km/h (0 Bft) 96,65 %
06.09.2022 00:00 21,5 C 20,0 C 16,1 C 70 % 1015,8 hPa 0,0 l/m 0,00 h 0,00 h 0 W/m 0,0 km/h (0 Bft) 98,04 %
06.09.2022 01:00 21,0 C 20,1 C 16,4 C 70 % 1015,9 hPa 0,0 l/m 0,00 h 0,00 h 0 W/m 5,6 km/h (1 Bft) 98,86 %
06.09.2022 02:00 21,2 C 20,3 C 16,4 C 70 % 1016,7 hPa 0,0 l/m 0,00 h 0,37 h 0 W/m 11,2 km/h (2 Bft) 95,30 %
06.09.2022 03:00 20,2 C 18,6 C 14,4 C 83 % 1016,9 hPa 0,4 l/m 0,00 h 0,37 h 0 W/m 3,2 km/h (1 Bft) 99,71 %
06.09.2022 04:00 19,2 C 18,0 C 14,0 C 88 % 1016,3 hPa 0,0 l/m 0,00 h 0,13 h 0 W/m 2,6 km/h (1 Bft) 97,01 %
06.09.2022 05:00 18,7 C 17,8 C 14,4 C 90 % 1015,8 hPa 0,0 l/m 0,00 h 0,00 h 0 W/m 1,2 km/h (1 Bft) 96,65 %
06.09.2022 06:00 18,2 C 17,1 C 14,0 C 91 % 1015,8 hPa 0,0 l/m 0,00 h 0,00 h 0 W/m 4,3 km/h (1 Bft) 97,37 %
06.09.2022 07:00 17,6 C 16,7 C 13,3 C 92 % 1016,1 hPa 0,0 l/m 0,00 h 0,00 h 13 W/m 3,0 km/h (1 Bft) 96,66 %
06.09.2022 08:00 17,8 C 17,5 C 14,2 C 93 % 1016,1 hPa 0,0 l/m 0,00 h 0,00 h 28 W/m 5,1 km/h (1 Bft) 97,32 %
06.09.2022 09:00 19,8 C 19,8 C 16,0 C 87 % 1015,9 hPa 0,0 l/m 0,13 h 0,00 h 89 W/m 11,8 km/h (2 Bft) 98,50 %
06.09.2022 10:00 22,5 C 23,4 C 18,2 C 76 % 1015,9 hPa 0,0 l/m 0,03 h 0,00 h 66 W/m 12,6 km/h (3 Bft) 96,34 %
06.09.2022 11:00 24,6 C 25,6 C 20,4 C 68 % 1015,5 hPa 0,0 l/m 0,27 h 0,00 h 271 W/m 9,1 km/h (2 Bft) 97,62 %
06.09.2022 12:00 26,7 C 30,1 C 24,2 C 61 % 1015,3 hPa 0,0 l/m 0,70 h 0,00 h 542 W/m 12,2 km/h (2 Bft) 99,36 %
06.09.2022 13:00 27,7 C 27,7 C 22,6 C 58 % 1015,1 hPa 0,0 l/m 0,43 h 0,00 h 392 W/m 11,2 km/h (2 Bft) 95,58 %
06.09.2022 14:00 29,6 C 35,1 C 23,8 C 53 % 1014,8 hPa 0,0 l/m 0,97 h 0,00 h 733 W/m 11,7 km/h (2 Bft) 98,65 %
06.09.2022 15:00 30,5 C 31,5 C 24,3 C 45 % 1014,4 hPa 0,0 l/m 1,00 h 0,00 h 675 W/m 12,1 km/h (2 Bft) 98,15 %
06.09.2022 16:00 30,5 C 31,1 C 24,4 C 43 % 1014,0 hPa 0,0 l/m 1,00 h 0,00 h 557 W/m 9,2 km/h (2 Bft) 95,66 %
06.09.2022 17:00 30,8 C 34,2 C 24,7 C 43 % 1013,5 hPa 0,0 l/m 1,00 h 0,00 h 399 W/m 6,5 km/h (2 Bft) 99,36 %
06.09.2022 18:00 30,9 C 33,5 C 23,5 C 44 % 1013,1 hPa 0,0 l/m 0,83 h 0,00 h 189 W/m 3,6 km/h (1 Bft) 98,05 %
06.09.2022 19:00 29,1 C 26,5 C 21,4 C 48 % 1012,9 hPa 0,0 l/m 0,03 h 0,00 h 35 W/m 1,9 km/h (1 Bft) 96,92 %
06.09.2022 20:00 26,3 C 23,5 C 18,9 C 56 % 1012,8 hPa 0,0 l/m 0,00 h 0,00 h 6 W/m 0,0 km/h (0 Bft) 97,01 %
06.09.2022 21:00 24,2 C 22,4 C 17,7 C 60 % 1012,5 hPa 0,0 l/m 0,00 h 0,00 h 0 W/m 0,1 km/h (0 Bft) 97,73 %
06.09.2022 22:00 23,2 C 21,7 C 17,5 C 64 % 1012,1 hPa 0,0 l/m 0,00 h 0,00 h 0 W/m 0,5 km/h (0 Bft) 96,85 %
06.09.2022 23:00 23,9 C 23,1 C 19,3 C 62 % 1012,2 hPa 0,0 l/m 0,00 h 0,00 h 0 W/m 12,4 km/h (3 Bft) 98,58 %
07.09.2022 00:00 23,9 C 22,8 C 19,1 C 61 % 1011,3 hPa 0,0 l/m 0,00 h 0,03 h 0 W/m 12,4 km/h (3 Bft) 97,01 %
07.09.2022 01:00 20,7 C 18,2 C 14,6 C 80 % 1013,5 hPa 4,2 l/m 0,00 h 0,90 h 0 W/m 20,2 km/h (4 Bft) 98,01 %
07.09.2022 02:00 18,2 C 16,7 C 13,4 C 94 % 1013,8 hPa 3,8 l/m 0,00 h 1,00 h 0 W/m 3,9 km/h (1 Bft) 97,57 %
07.09.2022 03:00 17,8 C 16,7 C 13,3 C 96 % 1013,1 hPa 0,2 l/m 0,00 h 0,10 h 0 W/m 4,2 km/h (1 Bft) 97,06 %
07.09.2022 04:00 17,5 C 16,3 C 13,1 C 97 % 1012,7 hPa 0,0 l/m 0,00 h 0,00 h 0 W/m 5,7 km/h (1 Bft) 96,20 %
07.09.2022 05:00 17,2 C 16,1 C 12,8 C 97 % 1012,5 hPa 0,0 l/m 0,00 h 0,00 h 0 W/m 4,4 km/h (1 Bft) 97,87 %
07.09.2022 06:00 17,0 C 16,0 C 12,8 C 98 % 1012,3 hPa 0,0 l/m 0,00 h 0,00 h 0 W/m 5,1 km/h (1 Bft) 98,01 %
07.09.2022 07:00 16,8 C 16,0 C 12,8 C 98 % 1012,3 hPa 0,0 l/m 0,00 h 0,00 h 22 W/m 2,9 km/h (1 Bft) 96,29 %
07.09.2022 08:00 17,2 C 17,1 C 13,0 C 98 % 1012,7 hPa 0,0 l/m 0,17 h 0,00 h 95 W/m 3,3 km/h (1 Bft) 98,64 %
07.09.2022 09:00 17,7 C 17,5 C 13,4 C 98 % 1013,3 hPa 0,4 l/m 0,00 h 0,43 h 67 W/m 7,1 km/h (2 Bft) 96,37 %
07.09.2022 10:00 18,1 C 18,1 C 13,8 C 98 % 1013,4 hPa 0,2 l/m 0,07 h 0,30 h 157 W/m 5,0 km/h (1 Bft) 98,50 %
07.09.2022 11:00 19,6 C 21,2 C 15,0 C 95 % 1013,6 hPa 0,0 l/m 0,40 h 0,00 h 284 W/m 10,9 km/h (2 Bft) 96,87 %
07.09.2022 12:00 21,6 C 23,1 C 17,8 C 87 % 1013,8 hPa 0,0 l/m 0,57 h 0,00 h 467 W/m 11,4 km/h (2 Bft) 98,75 %
07.09.2022 13:00 22,6 C 23,2 C 18,8 C 81 % 1013,4 hPa 0,0 l/m 0,33 h 0,00 h 405 W/m 11,4 km/h (2 Bft) 96,30 %
07.09.2022 14:00 24,2 C 27,3 C 19,8 C 72 % 1013,0 hPa 0,0 l/m 0,97 h 0,00 h 637 W/m 13,5 km/h (3 Bft) 98,01 %
07.09.2022 15:00 25,2 C 26,2 C 20,4 C 65 % 1012,6 hPa 0,0 l/m 1,00 h 0,00 h 626 W/m 11,8 km/h (2 Bft) 98,22 %
07.09.2022 16:00 25,1 C 25,2 C 20,2 C 62 % 1012,3 hPa 0,0 l/m 0,57 h 0,00 h 351 W/m 8,7 km/h (2 Bft) 96,73 %
07.09.2022 17:00 25,0 C 26,5 C 20,2 C 63 % 1012,0 hPa 0,0 l/m 0,67 h 0,00 h 277 W/m 8,4 km/h (2 Bft) 97,36 %
07.09.2022 18:00 25,6 C 27,0 C 20,4 C 61 % 1011,6 hPa 0,0 l/m 0,70 h 0,00 h 163 W/m 5,5 km/h (1 Bft) 99,70 %
07.09.2022 19:00 24,6 C 23,2 C 18,6 C 65 % 1011,4 hPa 0,0 l/m 0,20 h 0,00 h 38 W/m 3,0 km/h (1 Bft) 95,02 %
07.09.2022 20:00 22,3 C 20,2 C 15,9 C 73 % 1011,3 hPa 0,0 l/m 0,00 h 0,00 h 5 W/m 0,0 km/h (0 Bft) 99,15 %
07.09.2022 21:00 20,4 C 18,4 C 14,4 C 82 % 1011,2 hPa 0,0 l/m 0,00 h 0,00 h 0 W/m 0,0 km/h (0 Bft) 97,99 %
07.09.2022 22:00 19,0 C 17,4 C 13,7 C 86 % 1010,7 hPa 0,0 l/m 0,00 h 0,00 h 0 W/m 0,0 km/h (0 Bft) 96,01 %
07.09.2022 23:00 18,1 C 16,7 C 13,3 C 88 % 1010,2 hPa 0,0 l/m 0,00 h 0,00 h 0 W/m 0,2 km/h (0 Bft) 98,67 %
08.09.2022 00:00 17,9 C 17,2 C 13,9 C 89 % 1010,1 hPa 0,0 l/m 0,00 h 0,00 h 0 W/m 0,6 km/h (0 Bft) 97,29 %
08.09.2022 01:00 18,0 C 17,1 C 13,6 C 89 % 1009,4 hPa 0,0 l/m 0,00 h 0,00 h 0 W/m 0,6 km/h (0 Bft) 96,78 %
08.09.2022 02:00 17,7 C 16,8 C 13,5 C 90 % 1008,5 hPa 0,0 l/m 0,00 h 0,00 h 0 W/m 0,3 km/h (0 Bft) 97,63 %
08.09.2022 03:00 17,8 C 17,1 C 13,9 C 90 % 1008,1 hPa 0,0 l/m 0,00 h 0,00 h 0 W/m 4,9 km/h (1 Bft) 97,93 %
08.09.2022 04:00 17,7 C 17,0 C 13,9 C 90 % 1008,1 hPa 0,0 l/m 0,00 h 0,00 h 0 W/m 3,2 km/h (1 Bft) 96,60 %
08.09.2022 05:00 17,6 C 16,3 C 12,7 C 91 % 1008,3 hPa 1,2 l/m 0,00 h 0,83 h 0 W/m 2,6 km/h (1 Bft) 98,24 %
08.09.2022 06:00 17,2 C 15,9 C 12,6 C 95 % 1008,3 hPa 2,4 l/m 0,00 h 1,00 h 0 W/m 4,6 km/h (1 Bft) 97,67 %
08.09.2022 07:00 16,6 C 15,5 C 12,1 C 96 % 1008,6 hPa 1,8 l/m 0,00 h 1,00 h 4 W/m 3,8 km/h (1 Bft) 97,63 %
08.09.2022 08:00 16,3 C 15,6 C 12,2 C 97 % 1008,7 hPa 1,0 l/m 0,00 h 0,90 h 15 W/m 3,4 km/h (1 Bft) 96,61 %
08.09.2022 09:00 16,2 C 15,5 C 12,2 C 98 % 1009,0 hPa 1,2 l/m 0,00 h 0,87 h 50 W/m 7,7 km/h (2 Bft) 99,50 %
08.09.2022 10:00 16,5 C 16,8 C 12,6 C 98 % 1009,2 hPa 0,0 l/m 0,03 h 0,00 h 136 W/m 6,1 km/h (2 Bft) 96,25 %
08.09.2022 11:00 17,8 C 19,0 C 13,2 C 95 % 1009,2 hPa 0,0 l/m 0,50 h 0,00 h 361 W/m 14,1 km/h (3 Bft) 97,50 %
08.09.2022 12:00 19,7 C 21,8 C 16,6 C 79 % 1009,1 hPa 0,0 l/m 0,57 h 0,00 h 459 W/m 19,2 km/h (3 Bft) 97,52 %
08.09.2022 13:00 20,8 C 20,9 C 16,7 C 74 % 1008,9 hPa 0,0 l/m 0,37 h 0,00 h 361 W/m 17,7 km/h (3 Bft) 98,78 %
08.09.2022 14:00 22,0 C 25,6 C 17,3 C 69 % 1008,6 hPa 0,0 l/m 0,80 h 0,00 h 646 W/m 17,5 km/h (3 Bft) 97,08 %
08.09.2022 15:00 22,8 C 23,6 C 18,1 C 64 % 1008,6 hPa 0,0 l/m 0,90 h 0,00 h 601 W/m 22,9 km/h (4 Bft) 97,01 %
08.09.2022 16:00 22,5 C 23,0 C 17,8 C 65 % 1008,6 hPa 0,0 l/m 0,53 h 0,00 h 367 W/m 19,0 km/h (3 Bft) 98,15 %
08.09.2022 17:00 22,3 C 22,4 C 17,5 C 65 % 1008,5 hPa 0,0 l/m 0,27 h 0,00 h 175 W/m 16,2 km/h (3 Bft) 98,49 %
08.09.2022 18:00 20,1 C 18,1 C 14,5 C 75 % 1008,8 hPa 3,6 l/m 0,00 h 0,60 h 28 W/m 13,4 km/h (3 Bft) 95,77 %
08.09.2022 19:00 16,8 C 15,2 C 11,5 C 90 % 1008,7 hPa 0,0 l/m 0,27 h 0,13 h 39 W/m 2,8 km/h (1 Bft) 99,50 %
08.09.2022 20:00 16,3 C 14,8 C 11,3 C 93 % 1008,6 hPa 0,0 l/m 0,00 h 0,00 h 0 W/m 1,6 km/h (1 Bft) 96,72 %
08.09.2022 21:00 16,2 C 15,0 C 11,6 C 95 % 1008,8 hPa 0,0 l/m 0,00 h 0,00 h 0 W/m 1,7 km/h (1 Bft) 97,08 %
08.09.2022 22:00 16,0 C 15,3 C 11,2 C 95 % 1008,9 hPa 0,0 l/m 0,00 h 0,00 h 0 W/m 1,5 km/h (1 Bft) 98,58 %
08.09.2022 23:00 15,8 C 15,2 C 11,1 C 95 % 1008,8 hPa 0,0 l/m 0,00 h 0,00 h 0 W/m 3,8 km/h (1 Bft) 97,09 %
09.09.2022 00:00 15,5 C 14,3 C 10,7 C 95 % 1009,3 hPa 5,4 l/m 0,00 h 0,60 h 0 W/m 3,8 km/h (1 Bft) 97,69 %
09.09.2022 01:00 14,9 C 13,6 C 10,6 C 96 % 1008,8 hPa 0,0 l/m 0,00 h 0,13 h 0 W/m 0,0 km/h (0 Bft) 97,86 %
09.09.2022 02:00 14,7 C 13,7 C 10,6 C 96 % 1008,8 hPa 0,0 l/m 0,00 h 0,00 h 0 W/m 0,6 km/h (0 Bft) 97,44 %
09.09.2022 03:00 14,4 C 13,3 C 10,5 C 97 % 1008,6 hPa 0,0 l/m 0,00 h 0,00 h 0 W/m 3,3 km/h (1 Bft) 96,80 %
09.09.2022 04:00 14,4 C 13,7 C 10,6 C 97 % 1008,5 hPa 0,0 l/m 0,00 h 0,00 h 0 W/m 4,8 km/h (1 Bft) 97,69 %
09.09.2022 05:00 14,5 C 13,9 C 10,6 C 97 % 1008,3 hPa 0,0 l/m 0,00 h 0,00 h 0 W/m 4,2 km/h (1 Bft) 97,37 %
09.09.2022 06:00 14,4 C 13,9 C 10,6 C 97 % 1008,3 hPa 0,0 l/m 0,00 h 0,00 h 0 W/m 3,3 km/h (1 Bft) 97,30 %
09.09.2022 07:00 14,8 C 14,3 C 10,9 C 98 % 1008,3 hPa 0,0 l/m 0,00 h 0,00 h 17 W/m 3,8 km/h (1 Bft) 97,33 %
09.09.2022 08:00 15,1 C 15,1 C 11,5 C 97 % 1008,4 hPa 0,0 l/m 0,00 h 0,00 h 55 W/m 9,9 km/h (2 Bft) 98,72 %
09.09.2022 09:00 16,4 C 16,4 C 12,8 C 91 % 1008,6 hPa 0,0 l/m 0,00 h 0,00 h 105 W/m 19,3 km/h (3 Bft) 95,52 %
09.09.2022 10:00 18,2 C 18,5 C 14,3 C 81 % 1008,8 hPa 0,0 l/m 0,13 h 0,00 h 184 W/m 21,7 km/h (4 Bft) 99,14 %
09.09.2022 11:00 19,1 C 20,1 C 15,7 C 76 % 1009,0 hPa 0,0 l/m 0,47 h 0,00 h 334 W/m 26,6 km/h (4 Bft) 96,76 %
09.09.2022 12:00 19,7 C 19,5 C 15,7 C 72 % 1008,9 hPa 0,0 l/m 0,17 h 0,00 h 173 W/m 23,8 km/h (4 Bft) 98,36 %
09.09.2022 13:00 20,1 C 20,2 C 16,2 C 71 % 1008,7 hPa 0,0 l/m 0,17 h 0,07 h 257 W/m 28,8 km/h (4 Bft) 96,92 %
09.09.2022 14:00 18,5 C 17,4 C 13,3 C 82 % 1009,0 hPa 2,8 l/m 0,13 h 0,53 h 148 W/m 21,6 km/h (4 Bft) 97,57 %
09.09.2022 15:00 18,3 C 19,5 C 12,9 C 91 % 1008,6 hPa 0,0 l/m 0,80 h 0,00 h 491 W/m 19,0 km/h (3 Bft) 97,88 %
09.09.2022 16:00 17,5 C 15,8 C 11,6 C 88 % 1008,7 hPa 2,6 l/m 0,13 h 0,67 h 79 W/m 15,4 km/h (3 Bft) 97,01 %
09.09.2022 17:00 16,4 C 16,7 C 11,8 C 94 % 1008,3 hPa 0,0 l/m 0,77 h 0,00 h 211 W/m 7,5 km/h (2 Bft) 97,15 %
09.09.2022 18:00 17,8 C 18,3 C 12,5 C 91 % 1008,5 hPa 0,0 l/m 0,70 h 0,03 h 143 W/m 12,3 km/h (3 Bft) 98,89 %
09.09.2022 19:00 17,5 C 16,5 C 12,2 C 91 % 1008,8 hPa 0,0 l/m 0,23 h 0,00 h 34 W/m 7,9 km/h (2 Bft) 95,80 %
09.09.2022 20:00 17,0 C 16,1 C 11,8 C 92 % 1009,3 hPa 0,2 l/m 0,00 h 0,07 h 0 W/m 10,5 km/h (2 Bft) 97,18 %
09.09.2022 21:00 16,6 C 15,3 C 11,7 C 94 % 1009,8 hPa 1,6 l/m 0,00 h 0,77 h 0 W/m 8,6 km/h (2 Bft) 97,09 %
09.09.2022 22:00 15,6 C 14,5 C 11,1 C 95 % 1010,2 hPa 0,4 l/m 0,00 h 0,37 h 0 W/m 8,7 km/h (2 Bft) 97,29 %
09.09.2022 23:00 15,3 C 14,4 C 11,1 C 96 % 1010,3 hPa 0,0 l/m 0,00 h 0,00 h 0 W/m 10,4 km/h (2 Bft) 97,79 %
10.09.2022 00:00 15,1 C 14,2 C 10,8 C 96 % 1010,2 hPa 0,0 l/m 0,00 h 0,00 h 0 W/m 9,6 km/h (2 Bft) 97,63 %
10.09.2022 01:00 14,9 C 14,4 C 10,6 C 96 % 1010,4 hPa 0,0 l/m 0,00 h 0,00 h 0 W/m 13,6 km/h (3 Bft) 97,22 %
10.09.2022 02:00 15,0 C 14,4 C 10,6 C 94 % 1010,6 hPa 0,0 l/m 0,00 h 0,00 h 0 W/m 11,4 km/h (2 Bft) 97,58 %
10.09.2022 03:00 15,0 C 14,4 C 10,6 C 94 % 1010,4 hPa 0,0 l/m 0,00 h 0,00 h 0 W/m 10,6 km/h (2 Bft) 98,08 %
10.09.2022 04:00 15,2 C 14,4 C 10,6 C 94 % 1010,3 hPa 0,0 l/m 0,00 h 0,00 h 0 W/m 13,4 km/h (3 Bft) 97,09 %
10.09.2022 05:00 15,4 C 14,8 C 11,3 C 94 % 1010,4 hPa 0,2 l/m 0,00 h 0,20 h 0 W/m 15,7 km/h (3 Bft) 97,23 %
10.09.2022 06:00 15,3 C 14,2 C 11,1 C 95 % 1010,3 hPa 1,2 l/m 0,00 h 0,77 h 0 W/m 13,3 km/h (3 Bft) 97,86 %
10.09.2022 07:00 15,1 C 14,0 C 11,1 C 96 % 1010,6 hPa 1,6 l/m 0,00 h 0,97 h 12 W/m 6,8 km/h (2 Bft) 98,35 %
10.09.2022 08:00 15,1 C 14,4 C 11,1 C 97 % 1010,9 hPa 1,8 l/m 0,00 h 1,00 h 22 W/m 4,6 km/h (1 Bft) 95,53 %
10.09.2022 09:00 15,3 C 14,8 C 11,7 C 98 % 1011,1 hPa 0,2 l/m 0,00 h 0,53 h 76 W/m 8,4 km/h (2 Bft) 99,43 %
10.09.2022 10:00 15,8 C 15,3 C 12,0 C 98 % 1011,1 hPa 2,4 l/m 0,00 h 0,63 h 67 W/m 16,6 km/h (3 Bft) 96,31 %
10.09.2022 11:00 15,7 C 14,8 C 11,8 C 98 % 1011,1 hPa 1,2 l/m 0,00 h 0,50 h 64 W/m 23,5 km/h (4 Bft) 97,71 %
10.09.2022 12:00 15,9 C 15,2 C 12,1 C 98 % 1011,2 hPa 0,2 l/m 0,00 h 0,30 h 60 W/m 16,1 km/h (3 Bft) 98,46 %
10.09.2022 13:00 16,5 C 16,3 C 12,7 C 98 % 1011,3 hPa 0,0 l/m 0,00 h 0,30 h 175 W/m 15,8 km/h (3 Bft) 97,80 %
10.09.2022 14:00 17,6 C 17,9 C 13,3 C 96 % 1011,3 hPa 0,2 l/m 0,17 h 0,10 h 265 W/m 16,1 km/h (3 Bft) 96,16 %
10.09.2022 15:00 17,6 C 16,8 C 13,2 C 95 % 1011,4 hPa 1,6 l/m 0,00 h 0,60 h 82 W/m 13,1 km/h (3 Bft) 98,79 %
10.09.2022 16:00 17,3 C 16,7 C 13,2 C 96 % 1011,7 hPa 0,0 l/m 0,00 h 0,00 h 73 W/m 8,8 km/h (2 Bft) 96,57 %
10.09.2022 17:00 17,1 C 16,5 C 12,9 C 96 % 1012,0 hPa 0,0 l/m 0,00 h 0,10 h 68 W/m 7,1 km/h (2 Bft) 97,77 %
10.09.2022 18:00 17,1 C 16,5 C 13,0 C 96 % 1012,4 hPa 0,2 l/m 0,17 h 0,37 h 70 W/m 8,8 km/h (2 Bft) 97,84 %
10.09.2022 19:00 17,3 C 16,6 C 13,3 C 97 % 1013,2 hPa 0,0 l/m 0,33 h 0,00 h 33 W/m 7,6 km/h (2 Bft) 96,70 %
10.09.2022 20:00 16,9 C 16,0 C 12,8 C 98 % 1014,0 hPa 0,0 l/m 0,00 h 0,00 h 0 W/m 4,5 km/h (1 Bft) 97,08 %
10.09.2022 21:00 16,8 C 16,1 C 12,8 C 98 % 1014,9 hPa 0,0 l/m 0,00 h 0,00 h 0 W/m 5,0 km/h (1 Bft) 98,30 %
10.09.2022 22:00 16,6 C 15,9 C 12,8 C 98 % 1015,4 hPa 0,0 l/m 0,00 h 0,00 h 0 W/m 1,5 km/h (1 Bft) 96,86 %
10.09.2022 23:00 16,6 C 15,8 C 12,8 C 98 % 1015,8 hPa 0,0 l/m 0,00 h 0,00 h 0 W/m 1,0 km/h (0 Bft) 98,22 %
11.09.2022 00:00 16,4 C 15,6 C 12,8 C 98 % 1016,2 hPa 0,0 l/m 0,00 h 0,00 h 0 W/m 2,2 km/h (1 Bft) 94,34 %
11.09.2022 01:00 16,0 C 15,0 C 12,2 C 98 % 1016,5 hPa 0,0 l/m 0,00 h 0,00 h 0 W/m 0,7 km/h (0 Bft) 96,15 %
11.09.2022 02:00 15,4 C 14,3 C 11,7 C 98 % 1016,8 hPa 0,0 l/m 0,00 h 0,00 h 0 W/m 0,4 km/h (0 Bft) 98,66 %
11.09.2022 03:00 15,1 C 14,1 C 11,7 C 98 % 1017,3 hPa 0,0 l/m 0,00 h 0,00 h 0 W/m 3,1 km/h (1 Bft) 97,35 %
11.09.2022 04:00 15,1 C 14,4 C 12,0 C 99 % 1017,6 hPa 0,0 l/m 0,00 h 0,00 h 0 W/m 3,2 km/h (1 Bft) 94,88 %
11.09.2022 05:00 15,1 C 14,4 C 12,2 C 99 % 1017,9 hPa 0,0 l/m 0,00 h 0,00 h 0 W/m 3,3 km/h (1 Bft) 98,15 %
11.09.2022 06:00 15,0 C 14,2 C 12,2 C 99 % 1018,1 hPa 0,0 l/m 0,00 h 0,00 h 0 W/m 3,7 km/h (1 Bft) 98,15 %
11.09.2022 07:00 14,8 C 13,9 C 11,7 C 99 % 1018,6 hPa 0,0 l/m 0,00 h 0,00 h 10 W/m 3,3 km/h (1 Bft) 95,59 %
11.09.2022 08:00 14,8 C 14,2 C 12,1 C 100 % 1019,1 hPa 0,0 l/m 0,00 h 0,00 h 31 W/m 2,3 km/h (1 Bft) 97,67 %
11.09.2022 09:00 15,0 C 14,4 C 12,2 C 100 % 1019,5 hPa 0,0 l/m 0,00 h 0,00 h 38 W/m 2,7 km/h (1 Bft) 96,58 %
11.09.2022 10:00 15,1 C 14,9 C 12,6 C 100 % 1020,0 hPa 0,0 l/m 0,00 h 0,00 h 100 W/m 0,0 km/h (0 Bft) 97,12 %
11.09.2022 11:00 15,4 C 15,7 C 13,3 C 100 % 1020,4 hPa 0,0 l/m 0,00 h 0,00 h 105 W/m 0,0 km/h (0 Bft) 98,53 %
11.09.2022 12:00 15,8 C 16,9 C 14,0 C 100 % 1020,6 hPa 0,0 l/m 0,10 h 0,00 h 199 W/m 0,0 km/h (0 Bft) 97,42 %
11.09.2022 13:00 17,4 C 19,7 C 15,7 C 98 % 1020,6 hPa 0,0 l/m 0,70 h 0,00 h 384 W/m 0,0 km/h (0 Bft) 95,93 %
11.09.2022 14:00 19,2 C 22,0 C 16,2 C 86 % 1020,5 hPa 0,0 l/m 0,87 h 0,00 h 449 W/m 5,1 km/h (1 Bft) 99,23 %
11.09.2022 15:00 20,8 C 21,5 C 16,0 C 77 % 1019,9 hPa 0,0 l/m 0,97 h 0,00 h 610 W/m 7,3 km/h (2 Bft) 96,93 %
11.09.2022 16:00 21,9 C 22,4 C 16,7 C 70 % 1019,3 hPa 0,0 l/m 1,00 h 0,00 h 522 W/m 7,1 km/h (2 Bft) 97,86 %
11.09.2022 17:00 22,3 C 26,0 C 16,7 C 69 % 1018,9 hPa 0,0 l/m 1,00 h 0,00 h 361 W/m 3,8 km/h (1 Bft) 96,58 %
11.09.2022 18:00 22,7 C 23,6 C 16,6 C 69 % 1018,6 hPa 0,0 l/m 0,90 h 0,00 h 163 W/m 2,2 km/h (1 Bft) 99,41 %
11.09.2022 19:00 20,9 C 18,3 C 14,3 C 75 % 1018,4 hPa 0,0 l/m 0,00 h 0,00 h 19 W/m 0,2 km/h (0 Bft) 97,29 %
11.09.2022 20:00 18,3 C 15,6 C 12,2 C 84 % 1018,5 hPa 0,0 l/m 0,00 h 0,00 h 0 W/m 0,0 km/h (0 Bft) 97,08 %
11.09.2022 21:00 16,4 C 14,4 C 11,2 C 90 % 1018,4 hPa 0,0 l/m 0,00 h 0,00 h 0 W/m 0,0 km/h (0 Bft) 95,68 %
11.09.2022 22:00 15,4 C 13,6 C 10,8 C 92 % 1018,5 hPa 0,0 l/m 0,00 h 0,00 h 0 W/m 0,0 km/h (0 Bft) 99,15 %
11.09.2022 23:00 14,6 C 13,0 C 10,5 C 94 % 1018,2 hPa 0,0 l/m 0,00 h 0,00 h 0 W/m 0,0 km/h (0 Bft) 96,01 %
Min-Datum _ 09.09.22 11.09.22 09.09.22 05.09.22 08.09.22 - - - - 05.09.22 11.09.22
_ Min-Zeit 03:24 23:24 03:20 16:56 03:12 - - - - 00:00 00:02
Minimum _ 14,3 C 12,8 C 10,0 C 39 % 1008,0 hPa - - - - 0,0 km/h (0 Bft) 11,76 %
Max-Datum _ 06.09.22 05.09.22 05.09.22 11.09.22 11.09.22 09.09.22 05.09.22 08.09.22 08.09.22 07.09.22 05.09.22
_ Max-Zeit 18:18 14:20 12:12 08:06 12:50 00:14 13:35 06:08 15:02 01:14 00:00
Maximum _ 31,1 C 38,3 C 29,4 C 100 % 1020,7 hPa 5,4 l/m 0,08 h 0,07 h 906 W/m 70,8 km/h
SO (8 Bft)
100,00 %
Durchschnitt _ 19,4 C 19,1 C 14,9 C 83 % 1013,4 hPa #44,2 l/m #30:36 h #18:34 h 214 W/m 6,9 km/h (2 Bft) 97,48 %
© 2022 W. Hausmann